sensor_id;sensor_type;location;lat;lon;timestamp;temperature;humidity
58413;DHT22;44209;52.952;6.790;2023-02-15T00:01:14;2.00;99.90
58413;DHT22;44209;52.952;6.790;2023-02-15T00:03:40;2.00;99.90
58413;DHT22;44209;52.952;6.790;2023-02-15T00:06:05;2.00;99.90
58413;DHT22;44209;52.952;6.790;2023-02-15T00:08:31;2.00;99.90
58413;DHT22;44209;52.952;6.790;2023-02-15T00:11:07;1.90;99.90
58413;DHT22;44209;52.952;6.790;2023-02-15T00:13:32;1.90;99.90
58413;DHT22;44209;52.952;6.790;2023-02-15T00:16:04;1.90;99.90
58413;DHT22;44209;52.952;6.790;2023-02-15T00:18:30;1.90;99.90
58413;DHT22;44209;52.952;6.790;2023-02-15T00:20:56;1.80;99.90
58413;DHT22;44209;52.952;6.790;2023-02-15T00:23:21;1.80;99.90
58413;DHT22;44209;52.952;6.790;2023-02-15T00:25:47;1.70;99.90
58413;DHT22;44209;52.952;6.790;2023-02-15T00:28:13;1.70;99.90
58413;DHT22;44209;52.952;6.790;2023-02-15T00:30:38;1.70;99.90
58413;DHT22;44209;52.952;6.790;2023-02-15T00:33:04;1.70;99.90
58413;DHT22;44209;52.952;6.790;2023-02-15T00:35:29;1.60;99.90
58413;DHT22;44209;52.952;6.790;2023-02-15T00:37:55;1.60;99.90
58413;DHT22;44209;52.952;6.790;2023-02-15T00:40:21;1.60;99.90
58413;DHT22;44209;52.952;6.790;2023-02-15T00:42:46;1.50;99.90
58413;DHT22;44209;52.952;6.790;2023-02-15T00:45:12;1.50;99.90
58413;DHT22;44209;52.952;6.790;2023-02-15T00:47:37;1.50;99.90
58413;DHT22;44209;52.952;6.790;2023-02-15T00:50:03;1.40;99.90
58413;DHT22;44209;52.952;6.790;2023-02-15T00:52:29;1.40;99.90
58413;DHT22;44209;52.952;6.790;2023-02-15T00:54:54;1.40;99.90
58413;DHT22;44209;52.952;6.790;2023-02-15T00:57:20;1.40;99.90
58413;DHT22;44209;52.952;6.790;2023-02-15T00:59:46;1.50;99.90
58413;DHT22;44209;52.952;6.790;2023-02-15T01:02:11;1.40;99.90
58413;DHT22;44209;52.952;6.790;2023-02-15T01:04:37;1.40;99.90
58413;DHT22;44209;52.952;6.790;2023-02-15T01:07:02;1.40;99.90
58413;DHT22;44209;52.952;6.790;2023-02-15T01:09:28;1.40;99.90
58413;DHT22;44209;52.952;6.790;2023-02-15T01:11:54;1.30;99.90
58413;DHT22;44209;52.952;6.790;2023-02-15T01:14:20;1.30;99.90
58413;DHT22;44209;52.952;6.790;2023-02-15T01:16:45;1.30;99.90
58413;DHT22;44209;52.952;6.790;2023-02-15T01:19:11;1.30;99.90
58413;DHT22;44209;52.952;6.790;2023-02-15T01:21:37;1.20;99.90
58413;DHT22;44209;52.952;6.790;2023-02-15T01:24:03;1.10;99.90
58413;DHT22;44209;52.952;6.790;2023-02-15T01:26:28;1.10;99.90
58413;DHT22;44209;52.952;6.790;2023-02-15T01:28:54;1.10;99.90
58413;DHT22;44209;52.952;6.790;2023-02-15T01:31:20;1.10;99.90
58413;DHT22;44209;52.952;6.790;2023-02-15T01:33:46;1.10;99.90
58413;DHT22;44209;52.952;6.790;2023-02-15T01:36:12;1.20;99.90
58413;DHT22;44209;52.952;6.790;2023-02-15T01:38:38;1.20;99.90
58413;DHT22;44209;52.952;6.790;2023-02-15T01:41:05;1.20;99.90
58413;DHT22;44209;52.952;6.790;2023-02-15T01:43:47;1.20;99.90
58413;DHT22;44209;52.952;6.790;2023-02-15T01:46:14;1.30;99.90
58413;DHT22;44209;52.952;6.790;2023-02-15T01:48:46;1.30;99.90
58413;DHT22;44209;52.952;6.790;2023-02-15T01:51:13;1.30;99.90
58413;DHT22;44209;52.952;6.790;2023-02-15T01:53:47;1.30;99.90
58413;DHT22;44209;52.952;6.790;2023-02-15T01:56:15;1.40;99.90
58413;DHT22;44209;52.952;6.790;2023-02-15T01:58:42;1.40;99.90
58413;DHT22;44209;52.952;6.790;2023-02-15T02:01:08;1.40;99.90
58413;DHT22;44209;52.952;6.790;2023-02-15T02:03:47;1.40;99.90
58413;DHT22;44209;52.952;6.790;2023-02-15T02:06:15;1.40;99.90
58413;DHT22;44209;52.952;6.790;2023-02-15T02:08:41;1.40;99.90
58413;DHT22;44209;52.952;6.790;2023-02-15T02:11:11;1.50;99.90
58413;DHT22;44209;52.952;6.790;2023-02-15T02:13:36;1.50;99.90
58413;DHT22;44209;52.952;6.790;2023-02-15T02:18:58;1.40;99.90
58413;DHT22;44209;52.952;6.790;2023-02-15T02:31:44;1.30;99.90
58413;DHT22;44209;52.952;6.790;2023-02-15T02:39:10;1.20;99.90
58413;DHT22;44209;52.952;6.790;2023-02-15T02:41:42;1.20;99.90
58413;DHT22;44209;52.952;6.790;2023-02-15T02:46:48;1.10;99.90
58413;DHT22;44209;52.952;6.790;2023-02-15T02:49:15;1.10;99.90
58413;DHT22;44209;52.952;6.790;2023-02-15T02:51:41;1.10;99.90
58413;DHT22;44209;52.952;6.790;2023-02-15T02:54:07;1.10;99.90
58413;DHT22;44209;52.952;6.790;2023-02-15T02:56:34;1.10;99.90
58413;DHT22;44209;52.952;6.790;2023-02-15T02:59:03;1.10;99.90
58413;DHT22;44209;52.952;6.790;2023-02-15T03:01:44;1.10;99.90
58413;DHT22;44209;52.952;6.790;2023-02-15T03:04:13;1.10;99.90
58413;DHT22;44209;52.952;6.790;2023-02-15T03:06:41;1.10;99.90
58413;DHT22;44209;52.952;6.790;2023-02-15T03:09:10;1.10;99.90
58413;DHT22;44209;52.952;6.790;2023-02-15T03:11:41;1.10;99.90
58413;DHT22;44209;52.952;6.790;2023-02-15T03:14:07;1.10;99.90
58413;DHT22;44209;52.952;6.790;2023-02-15T03:16:32;1.10;99.90
58413;DHT22;44209;52.952;6.790;2023-02-15T03:19:01;1.10;99.90
58413;DHT22;44209;52.952;6.790;2023-02-15T03:21:31;1.10;99.90
58413;DHT22;44209;52.952;6.790;2023-02-15T03:24:03;1.10;99.90
58413;DHT22;44209;52.952;6.790;2023-02-15T03:26:32;1.10;99.90
58413;DHT22;44209;52.952;6.790;2023-02-15T03:28:58;1.20;99.90
58413;DHT22;44209;52.952;6.790;2023-02-15T03:31:26;1.20;99.90
58413;DHT22;44209;52.952;6.790;2023-02-15T03:33:55;1.20;99.90
58413;DHT22;44209;52.952;6.790;2023-02-15T03:41:19;1.20;99.90
58413;DHT22;44209;52.952;6.790;2023-02-15T03:43:49;1.20;99.90
58413;DHT22;44209;52.952;6.790;2023-02-15T03:46:22;1.20;99.90
58413;DHT22;44209;52.952;6.790;2023-02-15T03:48:53;1.20;99.90
58413;DHT22;44209;52.952;6.790;2023-02-15T03:51:29;1.10;99.90
58413;DHT22;44209;52.952;6.790;2023-02-15T03:54:00;1.10;99.90
58413;DHT22;44209;52.952;6.790;2023-02-15T03:56:26;1.10;99.90
58413;DHT22;44209;52.952;6.790;2023-02-15T03:58:52;1.00;99.90
58413;DHT22;44209;52.952;6.790;2023-02-15T04:01:37;1.00;99.90
58413;DHT22;44209;52.952;6.790;2023-02-15T04:04:23;1.00;99.90
58413;DHT22;44209;52.952;6.790;2023-02-15T04:06:48;0.90;99.90
58413;DHT22;44209;52.952;6.790;2023-02-15T04:09:14;0.90;99.90
58413;DHT22;44209;52.952;6.790;2023-02-15T04:11:58;0.80;99.90
58413;DHT22;44209;52.952;6.790;2023-02-15T04:14:24;0.80;99.90
58413;DHT22;44209;52.952;6.790;2023-02-15T04:17:08;0.80;99.90
58413;DHT22;44209;52.952;6.790;2023-02-15T04:19:34;0.70;99.90
58413;DHT22;44209;52.952;6.790;2023-02-15T04:22:18;0.80;99.90
58413;DHT22;44209;52.952;6.790;2023-02-15T04:25:03;0.80;99.90
58413;DHT22;44209;52.952;6.790;2023-02-15T04:27:35;0.80;99.90
58413;DHT22;44209;52.952;6.790;2023-02-15T04:30:01;0.90;99.90
58413;DHT22;44209;52.952;6.790;2023-02-15T04:32:26;0.80;99.90
58413;DHT22;44209;52.952;6.790;2023-02-15T04:34:52;0.90;99.90
58413;DHT22;44209;52.952;6.790;2023-02-15T04:37:18;0.90;99.90
58413;DHT22;44209;52.952;6.790;2023-02-15T04:39:43;0.90;99.90
58413;DHT22;44209;52.952;6.790;2023-02-15T04:42:09;0.90;99.90
58413;DHT22;44209;52.952;6.790;2023-02-15T04:44:35;0.80;99.90
58413;DHT22;44209;52.952;6.790;2023-02-15T04:47:00;0.80;99.90
58413;DHT22;44209;52.952;6.790;2023-02-15T04:49:26;0.80;99.90
58413;DHT22;44209;52.952;6.790;2023-02-15T04:51:51;0.90;99.90
58413;DHT22;44209;52.952;6.790;2023-02-15T04:54:17;0.90;99.90
58413;DHT22;44209;52.952;6.790;2023-02-15T04:56:42;0.90;99.90
58413;DHT22;44209;52.952;6.790;2023-02-15T04:59:11;0.80;99.90
58413;DHT22;44209;52.952;6.790;2023-02-15T05:01:37;0.80;99.90
58413;DHT22;44209;52.952;6.790;2023-02-15T05:04:03;0.80;99.90
58413;DHT22;44209;52.952;6.790;2023-02-15T05:06:28;0.80;99.90
58413;DHT22;44209;52.952;6.790;2023-02-15T05:08:54;0.80;99.90
58413;DHT22;44209;52.952;6.790;2023-02-15T05:11:19;0.80;99.90
58413;DHT22;44209;52.952;6.790;2023-02-15T05:13:45;0.70;99.90
58413;DHT22;44209;52.952;6.790;2023-02-15T05:16:11;0.70;99.90
58413;DHT22;44209;52.952;6.790;2023-02-15T05:18:36;0.70;99.90
58413;DHT22;44209;52.952;6.790;2023-02-15T05:21:02;0.70;99.90
58413;DHT22;44209;52.952;6.790;2023-02-15T05:23:28;0.60;99.90
58413;DHT22;44209;52.952;6.790;2023-02-15T05:25:53;0.60;99.90
58413;DHT22;44209;52.952;6.790;2023-02-15T05:28:38;0.60;99.90
58413;DHT22;44209;52.952;6.790;2023-02-15T05:31:04;0.60;99.90
58413;DHT22;44209;52.952;6.790;2023-02-15T05:33:30;0.60;99.90
58413;DHT22;44209;52.952;6.790;2023-02-15T05:35:56;0.60;99.90
58413;DHT22;44209;52.952;6.790;2023-02-15T05:38:22;0.60;99.90
58413;DHT22;44209;52.952;6.790;2023-02-15T05:40:47;0.60;99.90
58413;DHT22;44209;52.952;6.790;2023-02-15T05:43:13;0.60;99.90
58413;DHT22;44209;52.952;6.790;2023-02-15T05:45:38;0.60;99.90
58413;DHT22;44209;52.952;6.790;2023-02-15T05:48:04;0.60;99.90
58413;DHT22;44209;52.952;6.790;2023-02-15T05:50:30;0.60;99.90
58413;DHT22;44209;52.952;6.790;2023-02-15T05:52:55;0.60;99.90
58413;DHT22;44209;52.952;6.790;2023-02-15T05:55:21;0.70;99.90
58413;DHT22;44209;52.952;6.790;2023-02-15T05:57:48;0.70;99.90
58413;DHT22;44209;52.952;6.790;2023-02-15T06:00:13;0.70;99.90
58413;DHT22;44209;52.952;6.790;2023-02-15T06:02:39;0.70;99.90
58413;DHT22;44209;52.952;6.790;2023-02-15T06:05:05;0.70;99.90
58413;DHT22;44209;52.952;6.790;2023-02-15T06:07:31;0.70;99.90
58413;DHT22;44209;52.952;6.790;2023-02-15T06:09:57;0.70;99.90
58413;DHT22;44209;52.952;6.790;2023-02-15T06:12:22;0.80;99.90
58413;DHT22;44209;52.952;6.790;2023-02-15T06:14:48;0.70;99.90
58413;DHT22;44209;52.952;6.790;2023-02-15T06:17:13;0.70;99.90
58413;DHT22;44209;52.952;6.790;2023-02-15T06:19:39;0.70;99.90
58413;DHT22;44209;52.952;6.790;2023-02-15T06:22:05;0.70;99.90
58413;DHT22;44209;52.952;6.790;2023-02-15T06:24:31;0.70;99.90
58413;DHT22;44209;52.952;6.790;2023-02-15T06:26:57;0.70;99.90
58413;DHT22;44209;52.952;6.790;2023-02-15T06:29:22;0.70;99.90
58413;DHT22;44209;52.952;6.790;2023-02-15T06:31:48;0.70;99.90
58413;DHT22;44209;52.952;6.790;2023-02-15T06:34:14;0.70;99.90
58413;DHT22;44209;52.952;6.790;2023-02-15T06:36:39;0.70;99.90
58413;DHT22;44209;52.952;6.790;2023-02-15T06:39:05;0.70;99.90
58413;DHT22;44209;52.952;6.790;2023-02-15T06:41:31;0.70;99.90
58413;DHT22;44209;52.952;6.790;2023-02-15T06:43:56;0.60;99.90
58413;DHT22;44209;52.952;6.790;2023-02-15T06:46:22;0.70;99.90
58413;DHT22;44209;52.952;6.790;2023-02-15T06:48:48;0.70;99.90
58413;DHT22;44209;52.952;6.790;2023-02-15T06:51:14;0.70;99.90
58413;DHT22;44209;52.952;6.790;2023-02-15T06:53:39;0.70;99.90
58413;DHT22;44209;52.952;6.790;2023-02-15T06:56:08;0.70;99.90
58413;DHT22;44209;52.952;6.790;2023-02-15T06:58:43;0.70;99.90
58413;DHT22;44209;52.952;6.790;2023-02-15T07:01:11;0.70;99.90
58413;DHT22;44209;52.952;6.790;2023-02-15T07:03:37;0.70;99.90
58413;DHT22;44209;52.952;6.790;2023-02-15T07:06:03;0.70;99.90
58413;DHT22;44209;52.952;6.790;2023-02-15T07:08:31;0.70;99.90
58413;DHT22;44209;52.952;6.790;2023-02-15T07:10:56;0.70;99.90
58413;DHT22;44209;52.952;6.790;2023-02-15T07:13:45;0.70;99.90
58413;DHT22;44209;52.952;6.790;2023-02-15T07:16:11;0.70;99.90
58413;DHT22;44209;52.952;6.790;2023-02-15T07:18:37;0.70;99.90
58413;DHT22;44209;52.952;6.790;2023-02-15T07:21:03;0.80;99.90
58413;DHT22;44209;52.952;6.790;2023-02-15T07:23:29;0.80;99.90
58413;DHT22;44209;52.952;6.790;2023-02-15T07:25:58;0.90;99.90
58413;DHT22;44209;52.952;6.790;2023-02-15T07:28:24;0.90;99.90
58413;DHT22;44209;52.952;6.790;2023-02-15T07:30:49;1.00;99.90
58413;DHT22;44209;52.952;6.790;2023-02-15T07:33:15;1.10;99.90
58413;DHT22;44209;52.952;6.790;2023-02-15T07:35:50;1.20;99.90
58413;DHT22;44209;52.952;6.790;2023-02-15T07:38:16;1.20;99.90
58413;DHT22;44209;52.952;6.790;2023-02-15T07:40:42;1.30;99.90
58413;DHT22;44209;52.952;6.790;2023-02-15T07:43:08;1.40;99.90
58413;DHT22;44209;52.952;6.790;2023-02-15T07:45:33;1.50;99.90
58413;DHT22;44209;52.952;6.790;2023-02-15T07:48:02;1.50;99.90
58413;DHT22;44209;52.952;6.790;2023-02-15T07:50:28;1.60;99.90
58413;DHT22;44209;52.952;6.790;2023-02-15T07:52:53;1.70;99.90
58413;DHT22;44209;52.952;6.790;2023-02-15T07:55:19;1.80;99.90
58413;DHT22;44209;52.952;6.790;2023-02-15T07:57:45;1.80;99.90
58413;DHT22;44209;52.952;6.790;2023-02-15T08:00:14;1.90;99.90
58413;DHT22;44209;52.952;6.790;2023-02-15T08:02:40;2.00;99.90
58413;DHT22;44209;52.952;6.790;2023-02-15T08:05:06;2.00;99.90
58413;DHT22;44209;52.952;6.790;2023-02-15T08:07:32;2.10;99.90
58413;DHT22;44209;52.952;6.790;2023-02-15T08:09:57;2.20;99.90
58413;DHT22;44209;52.952;6.790;2023-02-15T08:12:27;2.20;99.90
58413;DHT22;44209;52.952;6.790;2023-02-15T08:14:53;2.20;99.90
58413;DHT22;44209;52.952;6.790;2023-02-15T08:17:18;2.30;99.90
58413;DHT22;44209;52.952;6.790;2023-02-15T08:19:44;2.30;99.90
58413;DHT22;44209;52.952;6.790;2023-02-15T08:22:12;2.40;99.90
58413;DHT22;44209;52.952;6.790;2023-02-15T08:24:38;2.40;99.90
58413;DHT22;44209;52.952;6.790;2023-02-15T08:27:05;2.50;99.90
58413;DHT22;44209;52.952;6.790;2023-02-15T08:29:31;2.50;99.90
58413;DHT22;44209;52.952;6.790;2023-02-15T08:31:58;2.60;99.90
58413;DHT22;44209;52.952;6.790;2023-02-15T08:34:27;2.60;99.90
58413;DHT22;44209;52.952;6.790;2023-02-15T08:36:53;2.70;99.90
58413;DHT22;44209;52.952;6.790;2023-02-15T08:39:19;2.80;99.90
58413;DHT22;44209;52.952;6.790;2023-02-15T08:41:45;2.80;99.90
58413;DHT22;44209;52.952;6.790;2023-02-15T08:44:11;2.90;99.90
58413;DHT22;44209;52.952;6.790;2023-02-15T08:46:37;3.00;99.90
58413;DHT22;44209;52.952;6.790;2023-02-15T08:49:03;3.10;99.90
58413;DHT22;44209;52.952;6.790;2023-02-15T08:51:33;3.10;99.90
58413;DHT22;44209;52.952;6.790;2023-02-15T08:54:00;3.20;99.90
58413;DHT22;44209;52.952;6.790;2023-02-15T08:56:27;3.30;99.90
58413;DHT22;44209;52.952;6.790;2023-02-15T08:58:53;3.30;99.90
58413;DHT22;44209;52.952;6.790;2023-02-15T09:01:20;3.40;99.90
58413;DHT22;44209;52.952;6.790;2023-02-15T09:03:46;3.50;99.90
58413;DHT22;44209;52.952;6.790;2023-02-15T09:06:13;3.60;99.90
58413;DHT22;44209;52.952;6.790;2023-02-15T09:08:39;3.70;99.90
58413;DHT22;44209;52.952;6.790;2023-02-15T09:11:05;3.80;99.90
58413;DHT22;44209;52.952;6.790;2023-02-15T09:13:31;3.90;99.90
58413;DHT22;44209;52.952;6.790;2023-02-15T09:16:03;4.00;99.90
58413;DHT22;44209;52.952;6.790;2023-02-15T09:18:30;4.00;99.90
58413;DHT22;44209;52.952;6.790;2023-02-15T09:20:56;4.10;99.90
58413;DHT22;44209;52.952;6.790;2023-02-15T09:23:22;4.10;99.90
58413;DHT22;44209;52.952;6.790;2023-02-15T09:25:47;4.20;99.90
58413;DHT22;44209;52.952;6.790;2023-02-15T09:28:13;4.30;99.90
58413;DHT22;44209;52.952;6.790;2023-02-15T09:30:39;4.30;99.90
58413;DHT22;44209;52.952;6.790;2023-02-15T09:33:04;4.40;99.90
58413;DHT22;44209;52.952;6.790;2023-02-15T09:35:30;4.50;99.90
58413;DHT22;44209;52.952;6.790;2023-02-15T09:37:55;4.50;99.90
58413;DHT22;44209;52.952;6.790;2023-02-15T09:40:21;4.60;99.90
58413;DHT22;44209;52.952;6.790;2023-02-15T09:45:34;4.90;99.90
58413;DHT22;44209;52.952;6.790;2023-02-15T09:55:46;5.20;99.90
58413;DHT22;44209;52.952;6.790;2023-02-15T10:11:15;5.80;99.90
58413;DHT22;44209;52.952;6.790;2023-02-15T10:14:13;5.90;99.90
58413;DHT22;44209;52.952;6.790;2023-02-15T10:27:13;6.20;99.90
58413;DHT22;44209;52.952;6.790;2023-02-15T10:29:40;6.20;99.90
58413;DHT22;44209;52.952;6.790;2023-02-15T10:32:24;6.30;99.90
58413;DHT22;44209;52.952;6.790;2023-02-15T10:37:30;6.50;99.90
58413;DHT22;44209;52.952;6.790;2023-02-15T10:42:49;6.60;99.90
58413;DHT22;44209;52.952;6.790;2023-02-15T10:58:14;7.20;99.90
58413;DHT22;44209;52.952;6.790;2023-02-15T11:03:20;7.40;99.90
58413;DHT22;44209;52.952;6.790;2023-02-15T11:08:20;7.50;99.90
58413;DHT22;44209;52.952;6.790;2023-02-15T11:10:57;7.70;99.90
58413;DHT22;44209;52.952;6.790;2023-02-15T11:13:24;7.80;99.90
58413;DHT22;44209;52.952;6.790;2023-02-15T11:17:36;8.00;99.90
58413;DHT22;44209;52.952;6.790;2023-02-15T11:20:18;8.10;99.90
58413;DHT22;44209;52.952;6.790;2023-02-15T11:22:48;8.20;99.90
58413;DHT22;44209;52.952;6.790;2023-02-15T11:25:20;8.20;99.90
58413;DHT22;44209;52.952;6.790;2023-02-15T11:27:48;8.40;99.90
58413;DHT22;44209;52.952;6.790;2023-02-15T11:30:20;8.50;99.90
58413;DHT22;44209;52.952;6.790;2023-02-15T11:32:48;8.60;99.90
58413;DHT22;44209;52.952;6.790;2023-02-15T11:35:36;8.70;99.90
58413;DHT22;44209;52.952;6.790;2023-02-15T11:38:20;8.80;99.90
58413;DHT22;44209;52.952;6.790;2023-02-15T11:40:52;8.90;99.90
58413;DHT22;44209;52.952;6.790;2023-02-15T11:43:41;9.00;99.90
58413;DHT22;44209;52.952;6.790;2023-02-15T11:46:11;9.00;99.90
58413;DHT22;44209;52.952;6.790;2023-02-15T11:48:38;9.10;99.90
58413;DHT22;44209;52.952;6.790;2023-02-15T11:51:04;9.20;99.90
58413;DHT22;44209;52.952;6.790;2023-02-15T11:53:36;9.30;99.90
58413;DHT22;44209;52.952;6.790;2023-02-15T11:56:03;9.30;99.90
58413;DHT22;44209;52.952;6.790;2023-02-15T11:59:01;9.30;99.90
58413;DHT22;44209;52.952;6.790;2023-02-15T12:09:48;9.80;99.90
58413;DHT22;44209;52.952;6.790;2023-02-15T12:12:35;10.00;99.90
58413;DHT22;44209;52.952;6.790;2023-02-15T12:15:04;10.10;99.90
58413;DHT22;44209;52.952;6.790;2023-02-15T12:17:39;10.10;99.90
58413;DHT22;44209;52.952;6.790;2023-02-15T12:22:49;10.10;99.90
58413;DHT22;44209;52.952;6.790;2023-02-15T12:28:01;10.10;99.90
58413;DHT22;44209;52.952;6.790;2023-02-15T12:30:33;10.10;99.90
58413;DHT22;44209;52.952;6.790;2023-02-15T12:33:15;10.10;99.90
58413;DHT22;44209;52.952;6.790;2023-02-15T12:35:43;10.20;99.90
58413;DHT22;44209;52.952;6.790;2023-02-15T12:40:35;10.40;99.90
58413;DHT22;44209;52.952;6.790;2023-02-15T12:43:08;10.40;99.90
58413;DHT22;44209;52.952;6.790;2023-02-15T12:45:49;10.50;99.90
58413;DHT22;44209;52.952;6.790;2023-02-15T12:48:18;10.60;99.90
58413;DHT22;44209;52.952;6.790;2023-02-15T12:51:07;10.60;99.90
58413;DHT22;44209;52.952;6.790;2023-02-15T12:53:35;10.70;99.90
58413;DHT22;44209;52.952;6.790;2023-02-15T12:56:04;10.70;99.90
58413;DHT22;44209;52.952;6.790;2023-02-15T12:58:40;10.80;99.90
58413;DHT22;44209;52.952;6.790;2023-02-15T13:03:35;10.80;99.90
58413;DHT22;44209;52.952;6.790;2023-02-15T13:06:02;10.80;99.90
58413;DHT22;44209;52.952;6.790;2023-02-15T13:08:45;10.80;99.90
58413;DHT22;44209;52.952;6.790;2023-02-15T13:11:12;10.90;99.90
58413;DHT22;44209;52.952;6.790;2023-02-15T13:14:02;10.90;99.90
58413;DHT22;44209;52.952;6.790;2023-02-15T13:16:33;10.90;99.90
58413;DHT22;44209;52.952;6.790;2023-02-15T13:19:06;10.90;99.90
58413;DHT22;44209;52.952;6.790;2023-02-15T13:21:39;10.80;99.90
58413;DHT22;44209;52.952;6.790;2023-02-15T13:26:43;10.70;99.90
58413;DHT22;44209;52.952;6.790;2023-02-15T13:29:20;10.70;99.90
58413;DHT22;44209;52.952;6.790;2023-02-15T13:31:47;10.70;99.90
58413;DHT22;44209;52.952;6.790;2023-02-15T13:34:30;10.70;99.90
58413;DHT22;44209;52.952;6.790;2023-02-15T13:40:06;10.70;99.90
58413;DHT22;44209;52.952;6.790;2023-02-15T13:42:45;10.60;99.90
58413;DHT22;44209;52.952;6.790;2023-02-15T13:45:50;10.60;99.90
58413;DHT22;44209;52.952;6.790;2023-02-15T13:51:55;10.50;99.90
58413;DHT22;44209;52.952;6.790;2023-02-15T14:00:20;10.50;99.90
58413;DHT22;44209;52.952;6.790;2023-02-15T14:08:59;10.50;99.90
58413;DHT22;44209;52.952;6.790;2023-02-15T14:12:11;10.50;99.90
58413;DHT22;44209;52.952;6.790;2023-02-15T14:17:33;10.60;99.90
58413;DHT22;44209;52.952;6.790;2023-02-15T14:23:23;10.60;99.90
58413;DHT22;44209;52.952;6.790;2023-02-15T14:28:51;10.60;99.90
58413;DHT22;44209;52.952;6.790;2023-02-15T14:31:27;10.60;99.90
58413;DHT22;44209;52.952;6.790;2023-02-15T14:33:55;10.60;99.90
58413;DHT22;44209;52.952;6.790;2023-02-15T14:36:23;10.50;99.90
58413;DHT22;44209;52.952;6.790;2023-02-15T14:39:17;10.50;99.90
58413;DHT22;44209;52.952;6.790;2023-02-15T14:42:34;10.40;99.90
58413;DHT22;44209;52.952;6.790;2023-02-15T14:47:44;10.30;99.90
58413;DHT22;44209;52.952;6.790;2023-02-15T14:56:16;10.20;99.90
58413;DHT22;44209;52.952;6.790;2023-02-15T15:01:33;10.10;99.90
58413;DHT22;44209;52.952;6.790;2023-02-15T15:04:10;10.10;99.90
58413;DHT22;44209;52.952;6.790;2023-02-15T15:06:40;10.10;99.90
58413;DHT22;44209;52.952;6.790;2023-02-15T15:09:22;10.10;99.90
58413;DHT22;44209;52.952;6.790;2023-02-15T15:11:52;10.00;99.90
58413;DHT22;44209;52.952;6.790;2023-02-15T15:14:44;10.00;99.90
58413;DHT22;44209;52.952;6.790;2023-02-15T15:17:51;10.00;99.90
58413;DHT22;44209;52.952;6.790;2023-02-15T15:22:28;9.90;99.90
58413;DHT22;44209;52.952;6.790;2023-02-15T15:27:54;9.80;99.90
58413;DHT22;44209;52.952;6.790;2023-02-15T15:48:45;9.50;99.90
58413;DHT22;44209;52.952;6.790;2023-02-15T15:51:13;9.40;99.90
58413;DHT22;44209;52.952;6.790;2023-02-15T15:53:45;9.40;99.90
58413;DHT22;44209;52.952;6.790;2023-02-15T15:56:18;9.40;99.90
58413;DHT22;44209;52.952;6.790;2023-02-15T15:59:00;9.30;99.90
58413;DHT22;44209;52.952;6.790;2023-02-15T16:01:28;9.30;99.90
58413;DHT22;44209;52.952;6.790;2023-02-15T16:03:57;9.20;99.90
58413;DHT22;44209;52.952;6.790;2023-02-15T16:06:38;9.10;99.90
58413;DHT22;44209;52.952;6.790;2023-02-15T16:11:43;9.00;99.90
58413;DHT22;44209;52.952;6.790;2023-02-15T16:14:35;9.00;99.90
58413;DHT22;44209;52.952;6.790;2023-02-15T16:17:03;8.90;99.90
58413;DHT22;44209;52.952;6.790;2023-02-15T16:19:33;8.80;99.90
58413;DHT22;44209;52.952;6.790;2023-02-15T16:22:01;8.80;99.90
58413;DHT22;44209;52.952;6.790;2023-02-15T16:29:46;8.60;99.90
58413;DHT22;44209;52.952;6.790;2023-02-15T16:32:24;8.60;99.90
58413;DHT22;44209;52.952;6.790;2023-02-15T16:34:58;8.50;99.90
58413;DHT22;44209;52.952;6.790;2023-02-15T16:37:27;8.50;99.90
58413;DHT22;44209;52.952;6.790;2023-02-15T16:39:56;8.40;99.90
58413;DHT22;44209;52.952;6.790;2023-02-15T16:42:22;8.40;99.90
58413;DHT22;44209;52.952;6.790;2023-02-15T16:44:54;8.30;99.90
58413;DHT22;44209;52.952;6.790;2023-02-15T16:47:31;8.30;99.90
58413;DHT22;44209;52.952;6.790;2023-02-15T16:50:02;8.30;99.90
58413;DHT22;44209;52.952;6.790;2023-02-15T16:52:29;8.20;99.90
58413;DHT22;44209;52.952;6.790;2023-02-15T16:55:02;8.10;99.90
58413;DHT22;44209;52.952;6.790;2023-02-15T16:57:32;8.10;99.90
58413;DHT22;44209;52.952;6.790;2023-02-15T17:00:20;8.00;99.90
58413;DHT22;44209;52.952;6.790;2023-02-15T17:03:19;8.00;99.90
58413;DHT22;44209;52.952;6.790;2023-02-15T17:05:51;8.00;99.90
58413;DHT22;44209;52.952;6.790;2023-02-15T17:08:34;7.90;99.90
58413;DHT22;44209;52.952;6.790;2023-02-15T17:11:13;7.80;99.90
58413;DHT22;44209;52.952;6.790;2023-02-15T17:13:39;7.80;99.90
58413;DHT22;44209;52.952;6.790;2023-02-15T17:16:31;7.80;99.90
58413;DHT22;44209;52.952;6.790;2023-02-15T17:19:08;7.70;99.90
58413;DHT22;44209;52.952;6.790;2023-02-15T17:21:38;7.70;99.90
58413;DHT22;44209;52.952;6.790;2023-02-15T17:24:05;7.60;99.90
58413;DHT22;44209;52.952;6.790;2023-02-15T17:26:34;7.60;99.90
58413;DHT22;44209;52.952;6.790;2023-02-15T17:29:26;7.60;99.90
58413;DHT22;44209;52.952;6.790;2023-02-15T17:31:55;7.60;99.90
58413;DHT22;44209;52.952;6.790;2023-02-15T17:40:24;7.40;99.90
58413;DHT22;44209;52.952;6.790;2023-02-15T17:42:50;7.40;99.90
58413;DHT22;44209;52.952;6.790;2023-02-15T17:45:17;7.40;99.90
58413;DHT22;44209;52.952;6.790;2023-02-15T17:47:43;7.40;99.90
58413;DHT22;44209;52.952;6.790;2023-02-15T17:50:25;7.40;99.90
58413;DHT22;44209;52.952;6.790;2023-02-15T17:52:53;7.30;99.90
58413;DHT22;44209;52.952;6.790;2023-02-15T17:55:21;7.30;99.90
58413;DHT22;44209;52.952;6.790;2023-02-15T17:58:15;7.30;99.90
58413;DHT22;44209;52.952;6.790;2023-02-15T18:01:06;7.30;99.90
58413;DHT22;44209;52.952;6.790;2023-02-15T18:03:52;7.20;99.90
58413;DHT22;44209;52.952;6.790;2023-02-15T18:06:39;7.20;99.90
58413;DHT22;44209;52.952;6.790;2023-02-15T18:09:24;7.20;99.90
58413;DHT22;44209;52.952;6.790;2023-02-15T18:12:25;7.20;99.90
58413;DHT22;44209;52.952;6.790;2023-02-15T18:14:52;7.20;99.90
58413;DHT22;44209;52.952;6.790;2023-02-15T18:17:34;7.20;99.90
58413;DHT22;44209;52.952;6.790;2023-02-15T18:20:02;7.20;99.90
58413;DHT22;44209;52.952;6.790;2023-02-15T18:22:32;7.20;99.90
58413;DHT22;44209;52.952;6.790;2023-02-15T18:24:58;7.10;99.90
58413;DHT22;44209;52.952;6.790;2023-02-15T18:27:24;7.20;99.90
58413;DHT22;44209;52.952;6.790;2023-02-15T18:29:49;7.20;99.90
58413;DHT22;44209;52.952;6.790;2023-02-15T18:32:23;7.20;99.90
58413;DHT22;44209;52.952;6.790;2023-02-15T18:34:52;7.10;99.90
58413;DHT22;44209;52.952;6.790;2023-02-15T18:37:20;7.10;99.90
58413;DHT22;44209;52.952;6.790;2023-02-15T18:39:52;7.00;99.90
58413;DHT22;44209;52.952;6.790;2023-02-15T18:44:44;6.90;99.90
58413;DHT22;44209;52.952;6.790;2023-02-15T18:47:09;6.90;99.90
58413;DHT22;44209;52.952;6.790;2023-02-15T18:49:35;6.80;99.90
58413;DHT22;44209;52.952;6.790;2023-02-15T18:52:01;6.80;99.90
58413;DHT22;44209;52.952;6.790;2023-02-15T18:54:27;6.80;99.90
58413;DHT22;44209;52.952;6.790;2023-02-15T18:56:55;6.70;99.90
58413;DHT22;44209;52.952;6.790;2023-02-15T18:59:23;6.60;99.90
58413;DHT22;44209;52.952;6.790;2023-02-15T19:01:50;6.60;99.90
58413;DHT22;44209;52.952;6.790;2023-02-15T19:04:16;6.50;99.90
58413;DHT22;44209;52.952;6.790;2023-02-15T19:06:47;6.50;99.90
58413;DHT22;44209;52.952;6.790;2023-02-15T19:09:16;6.50;99.90